Time;durP1;ratioP1;P1;durP2;ratioP2;P2;SDS_P1;SDS_P2;PMS_P1;PMS_P2;Temp;Humidity;BMP_temperature;BMP_pressure;BME280_temperature;BME280_humidity;BME280_pressure;Samples;Min_cycle;Max_cycle;Signal;HPM_P1;HPM_P2
2020/12/25 00:02:19;;;;;;;13.82;3.03;;;18.10;95.00;;;;;;5071428;28;20462;-81
2020/12/25 00:04:46;;;;;;;14.03;2.87;;;18.10;95.00;;;;;;5066646;28;20480;-81
2020/12/25 00:07:13;;;;;;;14.00;3.20;;;18.00;95.00;;;;;;5064195;28;20386;-82
2020/12/25 00:09:40;;;;;;;14.20;3.15;;;18.00;95.50;;;;;;5061451;28;20402;-81
2020/12/25 00:12:10;;;;;;;19.40;3.22;;;18.00;95.40;;;;;;5068070;28;20370;-81
2020/12/25 00:14:37;;;;;;;16.50;3.40;;;18.00;95.10;;;;;;5065228;28;20453;-82
2020/12/25 00:17:04;;;;;;;14.15;3.35;;;18.00;95.40;;;;;;5065899;28;20443;-81
2020/12/25 00:19:31;;;;;;;17.70;3.78;;;18.10;95.50;;;;;;5067381;28;20409;-81
2020/12/25 00:21:58;;;;;;;16.23;3.30;;;18.10;95.30;;;;;;5065363;28;20414;-82
2020/12/25 00:24:25;;;;;;;14.68;3.28;;;18.10;95.30;;;;;;5067851;28;20393;-81
2020/12/25 00:26:52;;;;;;;12.52;3.05;;;18.10;95.10;;;;;;5066305;28;20410;-82
2020/12/25 00:29:19;;;;;;;13.07;3.03;;;18.00;94.90;;;;;;5046896;28;20437;-81
2020/12/25 00:31:46;;;;;;;14.75;3.00;;;18.00;95.40;;;;;;5063529;28;20887;-82
2020/12/25 00:34:13;;;;;;;12.30;3.03;;;18.00;94.90;;;;;;5061313;28;20394;-81
2020/12/25 00:36:42;;;;;;;13.95;3.40;;;18.00;94.90;;;;;;5063409;28;20492;-81
2020/12/25 00:39:11;;;;;;;15.15;3.08;;;18.00;94.50;;;;;;5060805;28;20480;-84
2020/12/25 00:41:50;;;;;;;12.40;2.88;;;18.10;95.30;;;;;;5062349;28;20441;-81
2020/12/25 00:44:17;;;;;;;16.65;3.15;;;18.20;95.10;;;;;;5062460;28;20398;-81
2020/12/25 00:46:45;;;;;;;17.83;3.45;;;18.30;95.20;;;;;;5065651;28;20800;-81
2020/12/25 00:49:13;;;;;;;11.90;3.10;;;18.30;94.90;;;;;;5067057;28;20400;-82
2020/12/25 00:51:40;;;;;;;14.40;3.30;;;18.50;95.20;;;;;;5065373;28;20455;-82
2020/12/25 00:54:07;;;;;;;17.70;3.25;;;18.60;95.40;;;;;;5065971;28;20397;-82
2020/12/25 00:56:34;;;;;;;18.40;4.20;;;18.50;94.80;;;;;;5067118;28;20397;-82
2020/12/25 00:59:01;;;;;;;15.30;3.27;;;18.40;95.00;;;;;;5058249;28;20812;-82
2020/12/25 01:01:28;;;;;;;17.67;3.80;;;18.30;94.80;;;;;;5067162;28;20731;-82
2020/12/25 01:03:55;;;;;;;16.48;3.45;;;18.30;94.00;;;;;;5068220;28;20385;-82
2020/12/25 01:06:22;;;;;;;22.60;4.15;;;18.10;94.60;;;;;;5067637;28;20398;-82
2020/12/25 01:08:51;;;;;;;17.27;4.30;;;18.00;94.80;;;;;;5067640;28;20421;-82
2020/12/25 01:11:18;;;;;;;18.08;3.80;;;18.00;95.60;;;;;;5068903;28;20873;-81
2020/12/25 01:13:46;;;;;;;19.08;3.80;;;18.00;96.50;;;;;;5068037;28;20873;-81
2020/12/25 01:16:18;;;;;;;21.03;4.17;;;17.90;96.90;;;;;;5065670;28;20417;-81
2020/12/25 01:18:47;;;;;;;17.88;4.28;;;17.70;96.90;;;;;;5065766;28;20417;-82
2020/12/25 01:21:15;;;;;;;23.33;4.10;;;17.70;97.00;;;;;;5067257;28;20421;-80
2020/12/25 01:23:43;;;;;;;20.10;4.00;;;17.60;97.10;;;;;;5066947;28;20445;-81
2020/12/25 01:26:10;;;;;;;15.55;4.13;;;17.40;97.80;;;;;;5068116;28;20382;-82
2020/12/25 01:28:38;;;;;;;22.20;5.27;;;17.30;98.00;;;;;;5086746;28;20389;-81
2020/12/25 01:31:06;;;;;;;22.40;5.55;;;17.20;98.60;;;;;;5065644;28;20394;-82
2020/12/25 01:33:36;;;;;;;15.32;4.30;;;17.30;98.80;;;;;;5066348;28;20396;-81
2020/12/25 01:36:04;;;;;;;20.42;4.55;;;17.30;98.50;;;;;;5069428;28;20950;-82
2020/12/25 01:38:32;;;;;;;16.02;3.97;;;17.30;98.60;;;;;;5080213;28;20401;-81
2020/12/25 01:41:00;;;;;;;18.33;4.30;;;17.40;98.40;;;;;;5054007;28;20496;-81
2020/12/25 01:43:27;;;;;;;21.25;5.05;;;17.50;98.40;;;;;;5073037;28;20448;-81
2020/12/25 01:45:54;;;;;;;16.05;4.45;;;17.60;97.90;;;;;;5071782;28;20382;-80
2020/12/25 01:48:22;;;;;;;19.48;4.40;;;17.60;97.90;;;;;;5067185;28;20426;-80
2020/12/25 01:50:51;;;;;;;19.73;4.93;;;17.60;97.90;;;;;;5062046;28;20443;-81
2020/12/25 01:53:21;;;;;;;20.65;5.13;;;17.60;97.90;;;;;;5071747;28;20386;-81
2020/12/25 01:55:49;;;;;;;16.80;4.32;;;17.70;97.90;;;;;;5069096;28;20398;-80
2020/12/25 01:58:17;;;;;;;17.05;4.20;;;17.70;97.60;;;;;;5071088;28;20417;-81
2020/12/25 02:00:49;;;;;;;12.68;3.83;;;17.80;96.70;;;;;;5052987;28;20416;-81
2020/12/25 02:03:16;;;;;;;16.43;4.17;;;17.90;97.00;;;;;;5071453;28;20402;-81
2020/12/25 02:05:45;;;;;;;20.42;4.38;;;18.10;96.80;;;;;;5071970;28;20390;-80
2020/12/25 02:08:13;;;;;;;21.40;3.92;;;17.90;96.60;;;;;;5082714;28;20370;-80
2020/12/25 02:10:40;;;;;;;18.17;4.30;;;17.70;96.90;;;;;;5070808;28;21036;-80
2020/12/25 02:13:09;;;;;;;17.10;3.78;;;17.50;97.60;;;;;;5052625;28;20924;-80
2020/12/25 02:15:36;;;;;;;18.43;4.90;;;17.40;98.00;;;;;;5071369;28;20363;-80
2020/12/25 02:18:04;;;;;;;16.33;3.83;;;17.30;98.40;;;;;;5070747;28;20421;-80
2020/12/25 02:20:32;;;;;;;17.92;4.07;;;17.10;98.20;;;;;;5070064;28;20479;-79
2020/12/25 02:22:59;;;;;;;17.87;4.37;;;17.00;97.90;;;;;;5066742;28;20409;-79
2020/12/25 02:25:26;;;;;;;19.65;3.92;;;17.10;98.50;;;;;;5042646;28;20386;-79
2020/12/25 02:27:53;;;;;;;14.93;4.03;;;17.00;98.60;;;;;;5052904;28;20420;-80
2020/12/25 02:30:21;;;;;;;16.88;3.58;;;17.10;98.70;;;;;;5076966;28;20472;-80
2020/12/25 02:32:49;;;;;;;17.47;5.53;;;17.20;98.50;;;;;;5069060;28;20405;-80
2020/12/25 02:35:16;;;;;;;19.40;4.18;;;17.20;99.20;;;;;;5069766;28;20922;-80
2020/12/25 02:37:43;;;;;;;16.70;4.00;;;17.20;98.70;;;;;;5067831;28;20913;-80
2020/12/25 02:40:10;;;;;;;16.10;3.63;;;17.20;98.30;;;;;;5069248;28;20476;-80
2020/12/25 02:42:37;;;;;;;14.20;3.63;;;17.20;98.30;;;;;;5070733;28;20416;-81
2020/12/25 02:45:06;;;;;;;12.00;3.08;;;17.40;98.00;;;;;;5068491;28;20421;-81
2020/12/25 02:47:33;;;;;;;15.50;3.50;;;17.70;97.90;;;;;;5068024;28;20398;-81
2020/12/25 02:50:00;;;;;;;13.17;3.10;;;17.80;97.90;;;;;;5070672;28;20366;-81
2020/12/25 02:52:27;;;;;;;14.90;3.13;;;17.80;96.30;;;;;;5068088;28;20945;-81
2020/12/25 02:54:55;;;;;;;15.70;3.10;;;18.00;97.40;;;;;;5069972;28;20942;-81
2020/12/25 02:57:22;;;;;;;17.02;3.42;;;18.00;97.10;;;;;;5037314;28;21008;-82
2020/12/25 02:59:49;;;;;;;13.57;3.10;;;18.00;96.90;;;;;;5066029;28;20467;-82
2020/12/25 03:02:17;;;;;;;12.13;3.00;;;18.20;97.20;;;;;;5066810;28;20402;-81
2020/12/25 03:04:44;;;;;;;15.27;2.90;;;18.30;96.80;;;;;;5066559;28;20435;-81
2020/12/25 03:07:12;;;;;;;13.77;3.05;;;18.40;96.30;;;;;;5052707;28;20384;-81
2020/12/25 03:09:39;;;;;;;9.82;3.00;;;18.30;96.10;;;;;;5063514;28;20396;-81
2020/12/25 03:12:07;;;;;;;15.55;2.72;;;18.20;95.60;;;;;;5064047;28;20729;-81
2020/12/25 03:14:35;;;;;;;10.60;2.85;;;18.20;95.10;;;;;;5068394;28;20819;-81
2020/12/25 03:17:02;;;;;;;12.60;3.10;;;18.20;95.30;;;;;;5067969;28;20424;-82
2020/12/25 03:19:29;;;;;;;13.53;2.80;;;18.10;95.70;;;;;;5069747;28;20797;-82
2020/12/25 03:21:56;;;;;;;11.50;2.53;;;18.10;95.80;;;;;;5068992;28;20401;-81
2020/12/25 03:24:23;;;;;;;11.10;2.75;;;18.20;95.80;;;;;;5068220;28;20402;-82
2020/12/25 03:26:50;;;;;;;13.40;2.40;;;18.20;95.80;;;;;;5065886;28;20405;-81
2020/12/25 03:29:17;;;;;;;16.45;3.15;;;18.30;95.00;;;;;;5068256;28;20382;-81
2020/12/25 03:31:44;;;;;;;15.10;3.00;;;18.20;94.80;;;;;;5065088;28;20598;-81
2020/12/25 03:34:11;;;;;;;18.92;3.78;;;18.20;94.60;;;;;;5064879;28;20976;-82
2020/12/25 03:36:39;;;;;;;15.75;2.65;;;18.20;95.10;;;;;;5067526;28;20402;-82
2020/12/25 03:39:06;;;;;;;14.70;3.10;;;18.30;94.40;;;;;;5065332;28;20758;-81
2020/12/25 03:41:33;;;;;;;13.97;2.73;;;18.40;94.10;;;;;;5068847;28;20485;-82
2020/12/25 03:44:00;;;;;;;14.75;2.83;;;18.30;94.00;;;;;;5064993;28;20401;-82
2020/12/25 03:46:34;;;;;;;13.55;2.60;;;18.50;95.10;;;;;;5068591;28;20481;-82
2020/12/25 03:49:01;;;;;;;16.50;2.78;;;18.70;93.90;;;;;;5069533;28;20413;-82
2020/12/25 03:51:31;;;;;;;15.68;3.10;;;18.80;92.70;;;;;;5068682;28;20397;-82
2020/12/25 03:53:58;;;;;;;14.65;3.00;;;18.80;93.20;;;;;;5067251;28;20481;-82
2020/12/25 03:56:25;;;;;;;15.20;2.90;;;18.90;92.00;;;;;;5069071;28;20401;-81
2020/12/25 03:58:54;;;;;;;10.77;2.42;;;18.80;92.20;;;;;;5077823;28;20403;-82
2020/12/25 04:01:21;;;;;;;13.30;2.75;;;18.80;92.80;;;;;;5062340;28;20776;-81
2020/12/25 04:03:48;;;;;;;18.25;3.28;;;18.80;92.20;;;;;;5067266;28;20436;-82
2020/12/25 04:06:15;;;;;;;14.37;2.90;;;18.80;92.60;;;;;;5068804;28;20895;-83
2020/12/25 04:08:44;;;;;;;13.93;3.23;;;18.80;92.70;;;;;;5048448;28;20391;-81
2020/12/25 04:11:11;;;;;;;15.07;3.03;;;18.80;91.80;;;;;;5065511;28;20409;-82
2020/12/25 04:13:38;;;;;;;17.35;2.83;;;18.80;93.10;;;;;;5047965;28;20754;-81
2020/12/25 04:16:05;;;;;;;14.30;2.47;;;18.90;92.20;;;;;;5069092;28;20370;-82
2020/12/25 04:18:32;;;;;;;15.88;3.08;;;18.80;92.10;;;;;;5068799;28;20394;-82
2020/12/25 04:21:00;;;;;;;11.38;2.78;;;18.80;92.50;;;;;;5064940;28;20394;-82
2020/12/25 04:23:30;;;;;;;14.25;2.33;;;18.90;92.30;;;;;;5064857;28;20892;-82
2020/12/25 04:25:57;;;;;;;11.43;2.60;;;18.80;91.90;;;;;;5062838;28;20385;-82
2020/12/25 04:28:25;;;;;;;13.75;3.58;;;18.90;92.60;;;;;;5051288;28;20393;-82
2020/12/25 04:30:52;;;;;;;12.97;2.47;;;18.90;92.60;;;;;;5051232;28;20393;-82
2020/12/25 04:33:19;;;;;;;12.07;2.97;;;18.80;92.00;;;;;;5068887;28;20394;-82
2020/12/25 04:35:46;;;;;;;13.77;2.80;;;18.70;92.00;;;;;;5069981;28;20370;-82
2020/12/25 04:38:17;;;;;;;12.60;2.78;;;18.60;92.20;;;;;;5068239;28;22145;-82
2020/12/25 04:40:44;;;;;;;12.35;2.33;;;18.70;92.80;;;;;;5069023;28;20754;-81
2020/12/25 04:43:14;;;;;;;13.77;2.72;;;18.80;92.20;;;;;;5069879;28;20410;-82
2020/12/25 04:45:41;;;;;;;16.05;2.35;;;18.80;92.00;;;;;;5069014;28;20462;-82
2020/12/25 04:48:09;;;;;;;7.60;2.28;;;18.80;91.70;;;;;;5068746;28;20370;-82
2020/12/25 04:50:36;;;;;;;12.38;2.55;;;18.80;91.90;;;;;;5069056;28;20515;-82
2020/12/25 04:53:04;;;;;;;14.65;2.63;;;18.80;92.00;;;;;;5068724;28;20374;-83
2020/12/25 04:55:31;;;;;;;15.02;2.80;;;18.70;91.90;;;;;;5068938;28;20424;-82
2020/12/25 04:57:59;;;;;;;14.32;2.30;;;18.60;91.90;;;;;;5066081;28;20382;-82
2020/12/25 05:00:27;;;;;;;15.55;3.20;;;18.50;92.60;;;;;;5066782;28;20901;-82
2020/12/25 05:02:54;;;;;;;11.52;2.40;;;18.40;92.30;;;;;;5049390;28;20823;-81
2020/12/25 05:05:33;;;;;;;11.85;2.42;;;18.50;92.40;;;;;;5068059;28;20428;-82
2020/12/25 05:08:02;;;;;;;13.53;2.50;;;18.40;92.60;;;;;;5066963;28;20811;-81
2020/12/25 05:10:29;;;;;;;11.83;2.63;;;18.40;93.00;;;;;;5066541;28;20408;-82
2020/12/25 05:12:56;;;;;;;12.90;2.30;;;18.50;92.90;;;;;;5065842;28;20736;-81
2020/12/25 05:15:23;;;;;;;13.07;2.83;;;18.50;92.60;;;;;;5069014;28;20390;-81
2020/12/25 05:17:58;;;;;;;11.93;2.60;;;18.60;92.40;;;;;;5069134;28;21280;-81
2020/12/25 05:20:28;;;;;;;14.63;2.53;;;18.50;92.40;;;;;;5066400;28;20385;-81
2020/12/25 05:23:10;;;;;;;12.48;2.42;;;18.60;92.50;;;;;;5064980;28;20475;-82
2020/12/25 05:25:40;;;;;;;12.73;2.78;;;18.60;92.60;;;;;;5069908;28;21218;-82
2020/12/25 05:28:14;;;;;;;14.07;2.63;;;18.40;92.50;;;;;;5070414;28;20401;-82
2020/12/25 05:30:44;;;;;;;12.23;2.42;;;18.40;92.40;;;;;;5064530;28;20377;-81
2020/12/25 05:33:14;;;;;;;15.55;2.65;;;18.30;92.70;;;;;;5070206;28;20440;-82
2020/12/25 05:35:43;;;;;;;12.88;2.38;;;18.20;92.70;;;;;;5069291;28;20446;-82
2020/12/25 05:38:12;;;;;;;12.30;2.43;;;18.20;92.70;;;;;;5068664;28;20494;-81
2020/12/25 05:40:43;;;;;;;13.00;2.28;;;18.20;92.90;;;;;;5065059;28;20405;-81
2020/12/25 05:43:13;;;;;;;11.88;2.28;;;18.20;93.00;;;;;;5070756;28;20413;-82
2020/12/25 05:45:41;;;;;;;14.05;2.38;;;18.20;93.20;;;;;;5069830;28;20744;-81
2020/12/25 05:48:09;;;;;;;11.57;2.35;;;18.10;93.60;;;;;;5067329;28;20399;-81
2020/12/25 05:50:37;;;;;;;12.75;2.17;;;18.00;93.60;;;;;;5066380;28;20817;-82
2020/12/25 05:53:05;;;;;;;13.43;2.40;;;18.00;94.10;;;;;;5069404;28;20398;-81
2020/12/25 05:55:32;;;;;;;11.52;1.98;;;18.00;94.00;;;;;;5070129;28;20443;-81
2020/12/25 05:58:00;;;;;;;12.83;2.20;;;17.90;94.10;;;;;;5065242;28;20403;-82
2020/12/25 06:00:28;;;;;;;14.75;2.70;;;18.00;94.10;;;;;;5063543;28;20382;-82
2020/12/25 06:02:56;;;;;;;16.88;2.70;;;18.00;94.10;;;;;;5065126;28;20504;-81
2020/12/25 06:05:25;;;;;;;12.80;2.53;;;17.90;93.90;;;;;;5069750;28;21023;-81
2020/12/25 06:07:56;;;;;;;13.65;2.67;;;17.70;94.10;;;;;;5069845;28;20539;-82
2020/12/25 06:10:28;;;;;;;11.35;2.53;;;17.70;94.50;;;;;;5070876;28;20378;-82
2020/12/25 06:12:57;;;;;;;14.07;2.33;;;17.70;94.60;;;;;;5052020;28;20429;-83
2020/12/25 06:15:32;;;;;;;16.15;2.60;;;17.70;94.70;;;;;;5039934;28;20411;-83
2020/12/25 06:18:23;;;;;;;14.98;2.70;;;17.60;95.00;;;;;;5065763;28;20401;-82
2020/12/25 06:21:22;;;;;;;15.10;2.45;;;17.60;94.80;;;;;;5067976;28;20396;-82
2020/12/25 06:23:50;;;;;;;14.87;2.60;;;17.60;95.00;;;;;;5057702;28;20417;-82
2020/12/25 06:26:19;;;;;;;16.50;2.92;;;17.60;95.40;;;;;;5070762;28;20438;-82
2020/12/25 06:28:49;;;;;;;11.98;2.60;;;17.50;95.80;;;;;;5070600;28;20741;-82
2020/12/25 06:31:35;;;;;;;15.13;2.72;;;17.50;95.40;;;;;;5066715;28;20499;-83
2020/12/25 06:34:05;;;;;;;14.25;2.33;;;17.50;95.80;;;;;;5066849;28;20868;-83
2020/12/25 06:36:33;;;;;;;13.82;2.38;;;17.50;95.60;;;;;;5060602;28;20398;-82
2020/12/25 06:39:08;;;;;;;14.15;2.25;;;17.40;96.00;;;;;;5070705;28;20382;-82
2020/12/25 06:41:40;;;;;;;13.85;2.55;;;17.40;96.20;;;;;;5070729;28;20401;-82
2020/12/25 06:44:14;;;;;;;12.05;2.53;;;17.40;96.00;;;;;;5069005;28;20417;-84
2020/12/25 06:46:51;;;;;;;13.68;2.60;;;17.30;96.40;;;;;;5065765;28;20393;-83
2020/12/25 06:49:21;;;;;;;14.05;2.30;;;17.20;96.70;;;;;;5067075;28;20398;-83
2020/12/25 06:51:49;;;;;;;17.90;2.88;;;17.20;97.00;;;;;;5059166;28;20900;-83
2020/12/25 06:54:24;;;;;;;11.23;2.30;;;17.10;97.00;;;;;;5069262;28;20398;-82
2020/12/25 06:56:54;;;;;;;16.95;2.90;;;17.10;97.40;;;;;;5069555;28;20451;-83
2020/12/25 06:59:23;;;;;;;11.73;2.53;;;17.10;97.10;;;;;;5068141;28;20861;-83
2020/12/25 07:01:52;;;;;;;13.77;2.78;;;17.20;96.90;;;;;;5062266;28;20396;-83
2020/12/25 07:04:29;;;;;;;16.85;3.20;;;17.20;96.70;;;;;;5063874;28;20522;-83
2020/12/25 07:07:03;;;;;;;13.20;2.42;;;17.20;96.90;;;;;;5068744;28;20435;-82
2020/12/25 07:09:43;;;;;;;13.65;2.22;;;17.20;96.70;;;;;;5057008;28;20405;-82
2020/12/25 07:12:15;;;;;;;13.80;2.50;;;17.20;96.80;;;;;;5054946;28;20403;-83
2020/12/25 07:14:43;;;;;;;16.30;2.72;;;17.30;96.60;;;;;;5067465;28;20398;-83
2020/12/25 07:17:10;;;;;;;14.40;2.42;;;17.30;96.20;;;;;;5068304;28;20473;-83
2020/12/25 07:19:39;;;;;;;14.70;2.78;;;17.30;96.40;;;;;;5059609;28;20889;-82
2020/12/25 07:22:07;;;;;;;10.55;2.38;;;17.30;96.50;;;;;;5050268;28;20890;-82
2020/12/25 07:24:42;;;;;;;15.07;3.70;;;17.20;96.50;;;;;;5057751;28;20386;-84
2020/12/25 07:27:10;;;;;;;14.52;2.78;;;17.30;96.60;;;;;;5065608;28;20393;-82
2020/12/25 07:29:38;;;;;;;15.32;3.22;;;17.30;96.00;;;;;;5055789;28;20394;-85
2020/12/25 07:32:07;;;;;;;12.95;2.70;;;17.30;95.70;;;;;;5063891;28;20376;-82
2020/12/25 07:34:35;;;;;;;11.98;2.35;;;17.40;95.70;;;;;;5058441;28;20411;-84
2020/12/25 07:37:02;;;;;;;15.52;2.20;;;17.50;95.40;;;;;;5064231;28;20826;-83
2020/12/25 07:39:30;;;;;;;17.27;2.67;;;17.50;95.30;;;;;;5048585;28;21340;-83
2020/12/25 07:41:58;;;;;;;14.07;2.58;;;17.50;95.10;;;;;;5040512;28;20402;-83
2020/12/25 07:44:25;;;;;;;13.60;2.42;;;17.50;95.10;;;;;;5089830;28;20381;-83
2020/12/25 07:46:53;;;;;;;11.90;2.53;;;17.50;95.10;;;;;;5077031;28;20418;-83
2020/12/25 07:49:20;;;;;;;16.30;2.90;;;17.50;94.70;;;;;;5066613;28;20726;-82
2020/12/25 07:51:50;;;;;;;11.45;2.47;;;17.60;94.80;;;;;;5064585;28;20366;-84
2020/12/25 07:54:18;;;;;;;13.53;2.90;;;17.50;94.60;;;;;;5067690;28;20409;-84
2020/12/25 07:56:45;;;;;;;15.32;3.28;;;17.50;94.80;;;;;;5066550;28;20383;-83
2020/12/25 07:59:12;;;;;;;14.23;2.97;;;17.50;94.40;;;;;;5032548;28;20388;-82
2020/12/25 08:01:39;;;;;;;14.60;2.55;;;17.50;94.50;;;;;;5065760;28;20525;-83
2020/12/25 08:04:06;;;;;;;13.00;2.25;;;17.50;95.00;;;;;;5067870;28;20386;-82
2020/12/25 08:06:35;;;;;;;11.40;2.30;;;17.50;95.00;;;;;;5068260;28;20397;-83
2020/12/25 08:09:12;;;;;;;11.75;2.22;;;17.40;95.00;;;;;;5066996;28;20429;-82
2020/12/25 08:11:40;;;;;;;15.88;2.80;;;17.40;95.00;;;;;;5062900;28;20397;-82
2020/12/25 08:14:09;;;;;;;17.88;2.42;;;17.40;95.10;;;;;;5064045;28;20407;-82
2020/12/25 08:16:44;;;;;;;13.02;2.38;;;17.40;95.30;;;;;;5071891;28;20417;-83
2020/12/25 08:19:12;;;;;;;18.02;2.47;;;17.30;95.30;;;;;;5059121;28;20909;-82
2020/12/25 08:21:40;;;;;;;15.27;2.57;;;17.30;95.40;;;;;;5067471;28;20381;-82
2020/12/25 08:24:08;;;;;;;12.38;2.35;;;17.30;95.60;;;;;;5066670;28;20390;-83
2020/12/25 08:26:40;;;;;;;14.95;2.42;;;17.30;95.60;;;;;;5068850;28;20408;-83
2020/12/25 08:29:08;;;;;;;13.63;2.67;;;17.30;95.60;;;;;;5070155;28;20418;-81
2020/12/25 08:31:36;;;;;;;15.15;2.67;;;17.20;95.70;;;;;;5054354;28;20434;-83
2020/12/25 08:34:05;;;;;;;16.40;2.60;;;17.20;95.60;;;;;;5069223;28;20521;-83
2020/12/25 08:36:32;;;;;;;13.27;2.38;;;17.30;95.80;;;;;;5071198;28;20402;-82
2020/12/25 08:39:02;;;;;;;15.05;2.45;;;17.20;95.60;;;;;;5064352;28;20394;-83
2020/12/25 08:41:29;;;;;;;16.25;2.45;;;17.20;95.70;;;;;;5068850;28;20386;-83
2020/12/25 08:44:09;;;;;;;13.60;2.55;;;17.20;95.80;;;;;;5068458;28;20408;-83
2020/12/25 08:46:36;;;;;;;14.25;2.60;;;17.10;95.90;;;;;;5059940;28;20400;-83
2020/12/25 08:49:03;;;;;;;15.10;2.25;;;17.20;96.00;;;;;;5061574;28;20410;-83
2020/12/25 08:51:35;;;;;;;14.82;2.55;;;17.20;95.80;;;;;;5068244;28;20381;-83
2020/12/25 08:54:02;;;;;;;12.77;2.70;;;17.10;95.90;;;;;;5062427;28;20739;-82
2020/12/25 08:56:29;;;;;;;11.38;2.20;;;17.20;95.90;;;;;;5074959;28;20400;-83
2020/12/25 08:59:01;;;;;;;12.27;2.20;;;17.10;96.00;;;;;;5056249;28;20477;-83
2020/12/25 09:01:31;;;;;;;16.85;2.25;;;17.10;96.20;;;;;;5074911;28;20384;-83
2020/12/25 09:04:00;;;;;;;13.30;2.47;;;17.10;96.20;;;;;;5073517;28;20497;-83
2020/12/25 09:06:28;;;;;;;12.15;2.20;;;17.10;96.00;;;;;;5074348;28;20366;-83
2020/12/25 09:08:55;;;;;;;12.70;2.20;;;17.10;95.90;;;;;;5056616;28;20902;-83
2020/12/25 09:11:24;;;;;;;14.00;2.45;;;17.10;96.00;;;;;;5070172;28;20402;-84
2020/12/25 09:13:52;;;;;;;12.45;2.28;;;17.10;95.90;;;;;;5070564;28;20411;-83
2020/12/25 09:16:19;;;;;;;10.88;2.50;;;17.10;95.60;;;;;;5063367;28;20445;-84
2020/12/25 09:18:47;;;;;;;10.90;2.28;;;17.10;95.70;;;;;;5070311;28;20401;-83
2020/12/25 09:21:16;;;;;;;14.43;2.63;;;17.10;95.70;;;;;;5075104;28;20523;-82
2020/12/25 09:23:43;;;;;;;14.40;1.92;;;17.10;95.50;;;;;;5073412;28;20873;-83
2020/12/25 09:26:12;;;;;;;8.73;1.88;;;17.10;95.60;;;;;;5073116;28;20936;-83
2020/12/25 09:28:40;;;;;;;11.73;2.33;;;17.10;95.60;;;;;;5074044;28;20366;-83
2020/12/25 09:31:09;;;;;;;10.27;2.00;;;17.10;95.40;;;;;;5056138;28;20385;-83
2020/12/25 09:33:37;;;;;;;8.85;2.13;;;17.20;95.40;;;;;;5072100;28;20422;-82
2020/12/25 09:36:08;;;;;;;10.65;2.42;;;17.10;95.60;;;;;;5072319;28;20425;-82
2020/12/25 09:38:43;;;;;;;10.55;2.28;;;17.10;95.60;;;;;;5053958;28;20425;-82
2020/12/25 09:41:13;;;;;;;14.73;3.03;;;17.10;95.30;;;;;;5071444;28;20819;-82
2020/12/25 09:43:40;;;;;;;15.20;2.42;;;17.10;95.60;;;;;;5072219;28;20455;-83
2020/12/25 09:46:08;;;;;;;11.25;2.10;;;17.20;95.20;;;;;;5051682;28;20390;-83
2020/12/25 09:48:35;;;;;;;12.38;2.30;;;17.10;95.10;;;;;;5074186;28;20397;-82
2020/12/25 09:51:02;;;;;;;14.73;2.33;;;17.10;95.30;;;;;;5083380;28;20425;-83
2020/12/25 09:53:29;;;;;;;12.07;2.28;;;17.20;95.30;;;;;;5082529;28;20851;-82
2020/12/25 09:55:56;;;;;;;11.80;2.10;;;17.10;95.20;;;;;;5091921;28;20739;-82
2020/12/25 09:58:23;;;;;;;14.40;2.38;;;17.10;95.30;;;;;;5091815;28;20411;-82
2020/12/25 10:00:52;;;;;;;14.32;2.20;;;17.10;95.40;;;;;;5084580;28;21165;-83
2020/12/25 10:03:19;;;;;;;11.55;2.58;;;17.10;95.50;;;;;;5070302;28;20405;-83
2020/12/25 10:05:46;;;;;;;14.35;2.63;;;17.10;95.50;;;;;;5083164;28;20372;-82
2020/12/25 10:08:13;;;;;;;15.23;2.60;;;17.10;95.50;;;;;;5080686;28;20702;-83
2020/12/25 10:10:40;;;;;;;12.85;2.28;;;17.20;95.40;;;;;;5070502;28;20380;-83
2020/12/25 10:13:07;;;;;;;13.52;2.70;;;17.10;95.60;;;;;;5051976;28;20405;-84
2020/12/25 10:15:35;;;;;;;13.48;2.25;;;17.10;95.90;;;;;;5069714;28;20402;-81
2020/12/25 10:18:02;;;;;;;13.07;2.20;;;17.10;96.20;;;;;;5071535;28;20903;-83
2020/12/25 10:20:29;;;;;;;16.00;2.60;;;17.10;96.50;;;;;;5052809;28;20393;-82
2020/12/25 10:22:56;;;;;;;15.13;2.72;;;17.00;96.80;;;;;;5071553;28;20433;-83
2020/12/25 10:25:23;;;;;;;12.20;2.60;;;16.90;97.00;;;;;;5071208;28;20753;-82
2020/12/25 10:27:50;;;;;;;14.70;2.50;;;16.80;97.40;;;;;;5070725;28;20378;-82
2020/12/25 10:30:17;;;;;;;14.13;2.25;;;16.80;97.70;;;;;;5065372;28;20502;-83
2020/12/25 10:32:44;;;;;;;13.93;2.20;;;16.80;97.90;;;;;;5051397;28;20461;-82
2020/12/25 10:35:11;;;;;;;14.55;2.78;;;16.70;98.10;;;;;;5051788;28;20379;-84
2020/12/25 10:37:39;;;;;;;13.95;2.55;;;16.70;98.10;;;;;;5070314;28;20403;-84
2020/12/25 10:40:06;;;;;;;14.05;2.53;;;16.70;98.40;;;;;;5070798;28;20533;-83
2020/12/25 10:42:33;;;;;;;16.92;2.45;;;16.70;98.50;;;;;;5085470;28;20428;-84
2020/12/25 10:45:01;;;;;;;13.98;2.50;;;16.70;98.70;;;;;;5079425;28;20398;-83
2020/12/25 10:47:28;;;;;;;15.13;2.78;;;16.70;98.60;;;;;;5069830;28;20430;-82
2020/12/25 10:49:55;;;;;;;14.82;2.40;;;16.70;99.00;;;;;;5061088;28;20384;-83
2020/12/25 10:52:22;;;;;;;12.80;2.40;;;16.60;98.90;;;;;;5068182;28;20409;-82
2020/12/25 10:54:49;;;;;;;13.48;2.47;;;16.60;99.10;;;;;;5070014;28;20421;-83
2020/12/25 10:57:16;;;;;;;14.43;2.58;;;16.60;99.10;;;;;;5068070;28;20410;-82
2020/12/25 10:59:43;;;;;;;17.25;2.47;;;16.60;99.00;;;;;;5064052;28;20400;-83
2020/12/25 11:02:10;;;;;;;15.10;2.53;;;16.60;99.10;;;;;;5058484;28;20433;-82
2020/12/25 11:04:38;;;;;;;16.50;2.90;;;16.60;99.30;;;;;;5067490;28;20433;-82
2020/12/25 11:07:05;;;;;;;15.32;2.53;;;16.50;99.50;;;;;;5068998;28;20396;-81
2020/12/25 11:09:32;;;;;;;12.80;2.35;;;16.50;99.60;;;;;;5069159;28;20382;-81
2020/12/25 11:11:59;;;;;;;14.45;2.60;;;16.50;99.60;;;;;;5067952;28;20429;-81
2020/12/25 11:14:26;;;;;;;18.15;2.70;;;16.50;99.50;;;;;;5069547;28;20802;-81
2020/12/25 11:16:55;;;;;;;11.98;2.58;;;16.50;99.80;;;;;;5066782;28;20402;-81
2020/12/25 11:19:22;;;;;;;14.63;2.53;;;16.40;99.90;;;;;;5068380;28;20422;-81
2020/12/25 11:21:49;;;;;;;17.17;2.67;;;16.50;99.90;;;;;;5063037;28;20395;-82
2020/12/25 11:24:16;;;;;;;15.70;2.70;;;16.40;99.90;;;;;;5064441;28;20964;-82
2020/12/25 11:26:43;;;;;;;15.48;2.60;;;16.40;99.80;;;;;;5067182;28;20386;-82
2020/12/25 11:29:11;;;;;;;13.40;2.78;;;16.40;99.90;;;;;;5066961;28;20788;-82
2020/12/25 11:31:38;;;;;;;13.32;2.40;;;16.30;99.90;;;;;;5063591;28;20512;-82
2020/12/25 11:34:06;;;;;;;11.75;2.30;;;16.40;99.90;;;;;;5063601;28;20418;-82
2020/12/25 11:36:36;;;;;;;15.23;2.70;;;16.40;99.90;;;;;;5067680;28;20409;-82
2020/12/25 11:39:05;;;;;;;14.43;3.00;;;16.40;99.90;;;;;;5068784;28;20378;-82
2020/12/25 11:41:33;;;;;;;17.38;2.78;;;16.40;99.90;;;;;;5068604;28;20467;-82
2020/12/25 11:44:03;;;;;;;13.70;2.70;;;16.50;99.90;;;;;;5064836;28;20413;-83
2020/12/25 11:46:30;;;;;;;16.10;2.75;;;16.40;99.80;;;;;;5068759;28;20439;-83
2020/12/25 11:48:57;;;;;;;9.40;2.03;;;16.50;99.80;;;;;;5067595;28;20476;-83
2020/12/25 11:51:27;;;;;;;12.57;2.50;;;16.50;99.90;;;;;;5057934;28;20884;-83
2020/12/25 11:53:54;;;;;;;17.00;2.60;;;16.60;99.70;;;;;;5067251;28;20897;-82
2020/12/25 11:56:29;;;;;;;12.02;2.35;;;16.50;99.70;;;;;;5064251;28;20405;-82
2020/12/25 11:59:02;;;;;;;12.73;2.05;;;16.50;99.90;;;;;;5057807;28;20483;-81
2020/12/25 12:01:30;;;;;;;16.73;2.90;;;16.50;99.90;;;;;;5067933;28;20386;-81
2020/12/25 12:03:57;;;;;;;17.08;2.65;;;16.50;99.90;;;;;;5066432;28;20412;-81
2020/12/25 12:06:25;;;;;;;14.60;2.77;;;16.40;99.90;;;;;;5064214;28;20952;-80
2020/12/25 12:08:53;;;;;;;15.75;2.67;;;16.40;99.90;;;;;;5068405;28;20429;-81
2020/12/25 12:11:20;;;;;;;16.23;2.60;;;16.40;99.90;;;;;;5067992;28;20397;-81
2020/12/25 12:13:47;;;;;;;10.90;2.40;;;16.40;99.90;;;;;;5068023;28;20868;-81
2020/12/25 12:16:15;;;;;;;15.68;2.42;;;16.30;99.90;;;;;;5068398;28;20401;-81
2020/12/25 12:18:42;;;;;;;12.55;2.72;;;16.30;99.90;;;;;;5066668;28;20402;-81
2020/12/25 12:21:10;;;;;;;10.95;2.33;;;16.30;99.90;;;;;;5067070;28;20398;-81
2020/12/25 12:23:38;;;;;;;15.70;3.10;;;16.40;99.90;;;;;;5068389;28;20746;-81
2020/12/25 12:26:05;;;;;;;12.63;2.42;;;16.40;99.90;;;;;;5066888;28;20416;-81
2020/12/25 12:28:32;;;;;;;13.50;2.30;;;16.40;99.90;;;;;;5067331;28;20412;-81
2020/12/25 12:30:59;;;;;;;15.10;2.60;;;16.40;99.90;;;;;;5063870;28;20401;-81
2020/12/25 12:33:26;;;;;;;15.20;2.60;;;16.40;99.90;;;;;;5066638;28;20422;-81
2020/12/25 12:35:53;;;;;;;11.57;2.60;;;16.40;99.90;;;;;;5067243;28;21012;-81
2020/12/25 12:38:20;;;;;;;12.93;2.47;;;16.40;99.90;;;;;;5067917;28;20406;-81
2020/12/25 12:40:47;;;;;;;15.97;2.40;;;16.40;99.90;;;;;;5068112;28;21214;-81
2020/12/25 12:43:14;;;;;;;19.47;2.63;;;16.50;99.90;;;;;;5060681;28;20451;-81
2020/12/25 12:45:41;;;;;;;14.48;2.50;;;16.50;99.90;;;;;;5063981;28;20405;-81